sensor_id;sensor_type;location;lat;lon;timestamp;noise_LAeq;noise_LA_min;noise_LA_max;noise_LA01;noise_LA95
67900;Laerm;54700;51.796;10.956;2023-12-14T00:01:33;54.70;31.14;70.89;;
67900;Laerm;54700;51.796;10.956;2023-12-14T00:04:00;38.54;30.17;60.42;;
67900;Laerm;54700;51.796;10.956;2023-12-14T00:06:28;37.59;29.79;57.07;;
67900;Laerm;54700;51.796;10.956;2023-12-14T00:08:56;38.49;30.35;59.95;;
67900;Laerm;54700;51.796;10.956;2023-12-14T00:11:23;37.39;29.28;62.92;;
67900;Laerm;54700;51.796;10.956;2023-12-14T00:13:50;37.20;29.98;60.22;;
67900;Laerm;54700;51.796;10.956;2023-12-14T00:16:17;36.64;29.44;53.33;;
67900;Laerm;54700;51.796;10.956;2023-12-14T00:18:44;35.99;29.41;56.17;;
67900;Laerm;54700;51.796;10.956;2023-12-14T00:21:11;37.89;29.91;58.86;;
67900;Laerm;54700;51.796;10.956;2023-12-14T00:23:38;58.21;30.76;74.89;;
67900;Laerm;54700;51.796;10.956;2023-12-14T00:26:06;43.51;30.82;64.64;;
67900;Laerm;54700;51.796;10.956;2023-12-14T00:28:33;44.58;31.64;67.20;;
67900;Laerm;54700;51.796;10.956;2023-12-14T00:31:00;44.77;31.50;64.01;;
67900;Laerm;54700;51.796;10.956;2023-12-14T00:33:30;44.23;31.37;61.21;;
67900;Laerm;54700;51.796;10.956;2023-12-14T00:35:57;44.32;32.92;66.26;;
67900;Laerm;54700;51.796;10.956;2023-12-14T00:38:24;42.66;31.16;59.88;;
67900;Laerm;54700;51.796;10.956;2023-12-14T00:40:51;53.65;30.99;68.83;;
67900;Laerm;54700;51.796;10.956;2023-12-14T00:43:19;40.13;30.01;61.99;;
67900;Laerm;54700;51.796;10.956;2023-12-14T00:45:46;37.27;29.37;55.26;;
67900;Laerm;54700;51.796;10.956;2023-12-14T00:48:13;35.09;29.02;59.76;;
67900;Laerm;54700;51.796;10.956;2023-12-14T00:50:40;35.26;29.05;54.22;;
67900;Laerm;54700;51.796;10.956;2023-12-14T00:53:07;33.36;28.57;49.95;;
67900;Laerm;54700;51.796;10.956;2023-12-14T00:55:34;37.10;28.95;62.30;;
67900;Laerm;54700;51.796;10.956;2023-12-14T00:58:01;50.57;29.15;66.84;;
67900;Laerm;54700;51.796;10.956;2023-12-14T01:00:29;34.69;28.52;61.98;;
67900;Laerm;54700;51.796;10.956;2023-12-14T01:02:56;51.78;28.90;68.94;;
67900;Laerm;54700;51.796;10.956;2023-12-14T01:05:23;38.83;30.50;60.70;;
67900;Laerm;54700;51.796;10.956;2023-12-14T01:07:50;36.37;29.54;54.54;;
67900;Laerm;54700;51.796;10.956;2023-12-14T01:10:19;53.61;29.78;69.92;;
67900;Laerm;54700;51.796;10.956;2023-12-14T01:12:46;50.72;28.79;66.00;;
67900;Laerm;54700;51.796;10.956;2023-12-14T01:15:13;44.79;29.15;61.08;;
67900;Laerm;54700;51.796;10.956;2023-12-14T01:17:42;55.43;29.05;69.10;;
67900;Laerm;54700;51.796;10.956;2023-12-14T01:20:09;49.46;28.96;64.64;;
67900;Laerm;54700;51.796;10.956;2023-12-14T01:22:39;35.59;29.06;51.83;;
67900;Laerm;54700;51.796;10.956;2023-12-14T01:25:07;36.63;30.38;56.09;;
67900;Laerm;54700;51.796;10.956;2023-12-14T01:27:34;51.23;31.61;66.13;;
67900;Laerm;54700;51.796;10.956;2023-12-14T01:30:00;34.67;29.10;51.30;;
67900;Laerm;54700;51.796;10.956;2023-12-14T01:32:27;37.03;28.94;56.12;;
67900;Laerm;54700;51.796;10.956;2023-12-14T01:34:55;36.88;29.32;54.30;;
67900;Laerm;54700;51.796;10.956;2023-12-14T01:37:22;36.49;29.78;55.83;;
67900;Laerm;54700;51.796;10.956;2023-12-14T01:39:49;37.33;29.55;57.82;;
67900;Laerm;54700;51.796;10.956;2023-12-14T01:42:16;34.69;29.25;48.16;;
67900;Laerm;54700;51.796;10.956;2023-12-14T01:44:42;35.04;29.35;50.69;;
67900;Laerm;54700;51.796;10.956;2023-12-14T01:47:09;39.22;29.66;59.59;;
67900;Laerm;54700;51.796;10.956;2023-12-14T01:49:36;35.30;29.67;49.88;;
67900;Laerm;54700;51.796;10.956;2023-12-14T01:52:05;35.17;29.24;61.71;;
67900;Laerm;54700;51.796;10.956;2023-12-14T01:54:32;36.78;29.42;53.64;;
67900;Laerm;54700;51.796;10.956;2023-12-14T01:56:59;35.43;28.69;51.02;;
67900;Laerm;54700;51.796;10.956;2023-12-14T01:59:25;35.28;29.14;47.65;;
67900;Laerm;54700;51.796;10.956;2023-12-14T02:01:53;56.61;31.06;73.10;;
67900;Laerm;54700;51.796;10.956;2023-12-14T02:04:23;44.55;30.05;64.45;;
67900;Laerm;54700;51.796;10.956;2023-12-14T02:06:50;37.62;30.20;54.76;;
67900;Laerm;54700;51.796;10.956;2023-12-14T02:09:18;38.17;29.61;62.39;;
67900;Laerm;54700;51.796;10.956;2023-12-14T02:11:45;38.26;29.90;57.29;;
67900;Laerm;54700;51.796;10.956;2023-12-14T02:14:12;37.74;29.81;60.01;;
67900;Laerm;54700;51.796;10.956;2023-12-14T02:16:39;39.15;30.49;68.76;;
67900;Laerm;54700;51.796;10.956;2023-12-14T02:19:09;36.53;29.46;60.00;;
67900;Laerm;54700;51.796;10.956;2023-12-14T02:21:35;48.01;29.19;64.38;;
67900;Laerm;54700;51.796;10.956;2023-12-14T02:24:04;54.12;30.20;69.70;;
67900;Laerm;54700;51.796;10.956;2023-12-14T02:26:31;57.11;29.34;72.09;;
67900;Laerm;54700;51.796;10.956;2023-12-14T02:28:57;35.58;29.15;55.02;;
67900;Laerm;54700;51.796;10.956;2023-12-14T02:31:24;54.61;28.78;70.91;;
67900;Laerm;54700;51.796;10.956;2023-12-14T02:33:51;35.12;29.40;53.77;;
67900;Laerm;54700;51.796;10.956;2023-12-14T02:36:18;35.52;29.24;60.55;;
67900;Laerm;54700;51.796;10.956;2023-12-14T02:38:45;37.34;29.72;58.25;;
67900;Laerm;54700;51.796;10.956;2023-12-14T02:41:13;36.49;29.11;56.29;;
67900;Laerm;54700;51.796;10.956;2023-12-14T02:43:40;38.00;29.47;66.30;;
67900;Laerm;54700;51.796;10.956;2023-12-14T02:46:07;37.86;30.67;57.00;;
67900;Laerm;54700;51.796;10.956;2023-12-14T02:48:34;36.38;30.04;54.90;;
67900;Laerm;54700;51.796;10.956;2023-12-14T02:51:01;55.14;30.13;70.22;;
67900;Laerm;54700;51.796;10.956;2023-12-14T02:53:28;37.20;29.96;62.12;;
67900;Laerm;54700;51.796;10.956;2023-12-14T02:55:54;59.65;29.77;75.46;;
67900;Laerm;54700;51.796;10.956;2023-12-14T02:58:23;35.95;29.82;55.82;;
67900;Laerm;54700;51.796;10.956;2023-12-14T03:00:49;54.45;29.57;72.10;;
67900;Laerm;54700;51.796;10.956;2023-12-14T03:03:16;35.46;29.73;54.96;;
67900;Laerm;54700;51.796;10.956;2023-12-14T03:05:43;35.33;29.83;53.59;;
67900;Laerm;54700;51.796;10.956;2023-12-14T03:08:10;37.21;30.26;60.39;;
67900;Laerm;54700;51.796;10.956;2023-12-14T03:10:37;36.49;29.95;55.76;;
67900;Laerm;54700;51.796;10.956;2023-12-14T03:13:03;38.43;30.89;58.34;;
67900;Laerm;54700;51.796;10.956;2023-12-14T03:15:32;39.23;31.38;62.20;;
67900;Laerm;54700;51.796;10.956;2023-12-14T03:17:58;56.68;31.57;71.74;;
67900;Laerm;54700;51.796;10.956;2023-12-14T03:20:25;54.89;30.46;70.18;;
67900;Laerm;54700;51.796;10.956;2023-12-14T03:22:52;51.05;33.32;66.79;;
67900;Laerm;54700;51.796;10.956;2023-12-14T03:25:19;56.18;33.16;70.60;;
67900;Laerm;54700;51.796;10.956;2023-12-14T03:27:46;42.97;32.10;58.34;;
67900;Laerm;54700;51.796;10.956;2023-12-14T03:30:13;43.01;32.51;60.32;;
67900;Laerm;54700;51.796;10.956;2023-12-14T03:32:41;56.21;32.07;73.71;;
67900;Laerm;54700;51.796;10.956;2023-12-14T03:35:08;55.02;33.04;70.70;;
67900;Laerm;54700;51.796;10.956;2023-12-14T03:37:35;51.87;33.07;71.19;;
67900;Laerm;54700;51.796;10.956;2023-12-14T03:40:02;56.52;33.05;71.05;;
67900;Laerm;54700;51.796;10.956;2023-12-14T03:42:29;58.12;33.29;72.34;;
67900;Laerm;54700;51.796;10.956;2023-12-14T03:44:56;58.07;33.78;70.68;;
67900;Laerm;54700;51.796;10.956;2023-12-14T03:47:22;54.08;34.98;71.34;;
67900;Laerm;54700;51.796;10.956;2023-12-14T03:49:50;60.24;34.75;74.35;;
67900;Laerm;54700;51.796;10.956;2023-12-14T03:52:16;44.66;35.06;62.67;;
67900;Laerm;54700;51.796;10.956;2023-12-14T03:54:43;54.25;34.84;68.70;;
67900;Laerm;54700;51.796;10.956;2023-12-14T03:57:10;44.54;35.18;58.54;;
67900;Laerm;54700;51.796;10.956;2023-12-14T03:59:39;44.13;35.37;61.90;;
67900;Laerm;54700;51.796;10.956;2023-12-14T04:02:05;58.37;35.99;72.85;;
67900;Laerm;54700;51.796;10.956;2023-12-14T04:04:32;56.63;36.81;72.81;;
67900;Laerm;54700;51.796;10.956;2023-12-14T04:07:03;61.77;37.41;75.24;;
67900;Laerm;54700;51.796;10.956;2023-12-14T04:09:30;57.66;35.74;71.83;;
67900;Laerm;54700;51.796;10.956;2023-12-14T04:11:57;56.28;34.10;70.24;;
67900;Laerm;54700;51.796;10.956;2023-12-14T04:14:24;62.24;38.23;74.60;;
67900;Laerm;54700;51.796;10.956;2023-12-14T04:16:51;60.56;38.29;74.42;;
67900;Laerm;54700;51.796;10.956;2023-12-14T04:19:18;60.70;37.70;73.02;;
67900;Laerm;54700;51.796;10.956;2023-12-14T04:21:44;58.15;36.32;71.06;;
67900;Laerm;54700;51.796;10.956;2023-12-14T04:24:13;61.00;39.65;73.73;;
67900;Laerm;54700;51.796;10.956;2023-12-14T04:26:40;59.88;37.30;71.64;;
67900;Laerm;54700;51.796;10.956;2023-12-14T04:29:10;62.05;39.56;75.22;;
67900;Laerm;54700;51.796;10.956;2023-12-14T04:31:37;62.38;39.09;74.80;;
67900;Laerm;54700;51.796;10.956;2023-12-14T04:34:04;64.36;43.96;77.79;;
67900;Laerm;54700;51.796;10.956;2023-12-14T04:36:31;57.68;40.24;72.75;;
67900;Laerm;54700;51.796;10.956;2023-12-14T04:38:57;62.21;38.93;73.03;;
67900;Laerm;54700;51.796;10.956;2023-12-14T04:41:25;58.50;40.10;71.03;;
67900;Laerm;54700;51.796;10.956;2023-12-14T04:43:52;65.03;43.83;76.36;;
67900;Laerm;54700;51.796;10.956;2023-12-14T04:46:19;62.93;38.52;75.15;;
67900;Laerm;54700;51.796;10.956;2023-12-14T04:48:46;59.63;38.88;70.40;;
67900;Laerm;54700;51.796;10.956;2023-12-14T04:51:13;63.87;37.75;75.22;;
67900;Laerm;54700;51.796;10.956;2023-12-14T04:53:40;63.71;42.10;75.11;;
67900;Laerm;54700;51.796;10.956;2023-12-14T04:56:12;57.39;38.60;71.45;;
67900;Laerm;54700;51.796;10.956;2023-12-14T04:58:41;60.41;39.56;75.58;;
67900;Laerm;54700;51.796;10.956;2023-12-14T05:01:08;65.07;40.53;75.63;;
67900;Laerm;54700;51.796;10.956;2023-12-14T05:03:36;63.43;38.80;73.01;;
67900;Laerm;54700;51.796;10.956;2023-12-14T05:06:03;63.06;43.79;74.47;;
67900;Laerm;54700;51.796;10.956;2023-12-14T05:08:30;59.53;38.05;74.14;;
67900;Laerm;54700;51.796;10.956;2023-12-14T05:10:57;63.58;39.79;72.96;;
67900;Laerm;54700;51.796;10.956;2023-12-14T05:13:24;63.52;39.79;76.01;;
67900;Laerm;54700;51.796;10.956;2023-12-14T05:15:52;64.41;43.46;72.90;;
67900;Laerm;54700;51.796;10.956;2023-12-14T05:18:19;62.37;41.07;77.71;;
67900;Laerm;54700;51.796;10.956;2023-12-14T05:20:47;63.32;41.29;73.07;;
67900;Laerm;54700;51.796;10.956;2023-12-14T05:23:14;65.64;44.63;72.41;;
67900;Laerm;54700;51.796;10.956;2023-12-14T05:25:41;64.95;41.76;74.29;;
67900;Laerm;54700;51.796;10.956;2023-12-14T05:28:11;65.03;40.24;73.51;;
67900;Laerm;54700;51.796;10.956;2023-12-14T05:30:39;64.83;41.50;75.24;;
67900;Laerm;54700;51.796;10.956;2023-12-14T05:33:09;65.33;43.83;75.06;;
67900;Laerm;54700;51.796;10.956;2023-12-14T05:35:36;64.46;42.64;73.83;;
67900;Laerm;54700;51.796;10.956;2023-12-14T05:38:03;64.71;41.87;72.44;;
67900;Laerm;54700;51.796;10.956;2023-12-14T05:40:30;64.22;41.25;72.95;;
67900;Laerm;54700;51.796;10.956;2023-12-14T05:42:57;64.34;40.35;72.49;;
67900;Laerm;54700;51.796;10.956;2023-12-14T05:45:24;65.68;45.08;75.73;;
67900;Laerm;54700;51.796;10.956;2023-12-14T05:47:51;66.73;43.00;74.63;;
67900;Laerm;54700;51.796;10.956;2023-12-14T05:50:19;65.91;46.53;73.82;;
67900;Laerm;54700;51.796;10.956;2023-12-14T05:52:47;64.53;42.29;76.42;;
67900;Laerm;54700;51.796;10.956;2023-12-14T05:55:15;66.53;48.16;78.76;;
67900;Laerm;54700;51.796;10.956;2023-12-14T05:57:58;66.18;48.77;78.00;;
67900;Laerm;54700;51.796;10.956;2023-12-14T06:00:29;66.55;45.53;78.42;;
67900;Laerm;54700;51.796;10.956;2023-12-14T06:03:00;63.61;40.20;73.72;;
67900;Laerm;54700;51.796;10.956;2023-12-14T06:05:29;63.90;51.68;71.44;;
67900;Laerm;54700;51.796;10.956;2023-12-14T06:08:02;65.52;49.26;76.30;;
67900;Laerm;54700;51.796;10.956;2023-12-14T06:10:55;64.44;42.37;73.01;;
67900;Laerm;54700;51.796;10.956;2023-12-14T06:13:22;64.56;42.57;78.22;;
67900;Laerm;54700;51.796;10.956;2023-12-14T06:15:50;65.37;42.99;74.32;;
67900;Laerm;54700;51.796;10.956;2023-12-14T06:18:20;65.01;41.77;73.42;;
67900;Laerm;54700;51.796;10.956;2023-12-14T06:20:48;64.35;45.87;73.43;;
67900;Laerm;54700;51.796;10.956;2023-12-14T06:23:15;65.58;45.88;74.43;;
67900;Laerm;54700;51.796;10.956;2023-12-14T06:25:42;65.26;53.40;71.52;;
67900;Laerm;54700;51.796;10.956;2023-12-14T06:28:09;62.67;43.35;70.98;;
67900;Laerm;54700;51.796;10.956;2023-12-14T06:30:36;65.84;42.17;72.77;;
67900;Laerm;54700;51.796;10.956;2023-12-14T06:33:03;66.05;47.63;74.65;;
67900;Laerm;54700;51.796;10.956;2023-12-14T06:35:31;65.55;52.25;76.92;;
67900;Laerm;54700;51.796;10.956;2023-12-14T06:37:59;66.24;46.64;76.03;;
67900;Laerm;54700;51.796;10.956;2023-12-14T06:40:35;66.36;50.91;73.59;;
67900;Laerm;54700;51.796;10.956;2023-12-14T06:43:03;65.24;48.13;87.24;;
67900;Laerm;54700;51.796;10.956;2023-12-14T06:45:30;66.48;45.65;77.42;;
67900;Laerm;54700;51.796;10.956;2023-12-14T06:47:59;65.74;53.81;73.71;;
67900;Laerm;54700;51.796;10.956;2023-12-14T06:50:25;64.81;50.71;73.33;;
67900;Laerm;54700;51.796;10.956;2023-12-14T06:52:57;64.91;49.86;73.53;;
67900;Laerm;54700;51.796;10.956;2023-12-14T06:55:26;66.14;47.93;76.45;;
67900;Laerm;54700;51.796;10.956;2023-12-14T06:58:00;66.74;47.77;77.46;;
67900;Laerm;54700;51.796;10.956;2023-12-14T07:00:27;66.09;50.38;75.60;;
67900;Laerm;54700;51.796;10.956;2023-12-14T07:02:55;66.23;46.14;81.46;;
67900;Laerm;54700;51.796;10.956;2023-12-14T07:05:22;65.59;46.43;74.07;;
67900;Laerm;54700;51.796;10.956;2023-12-14T07:07:51;65.58;50.36;73.38;;
67900;Laerm;54700;51.796;10.956;2023-12-14T07:10:20;64.67;43.49;75.48;;
67900;Laerm;54700;51.796;10.956;2023-12-14T07:12:48;66.65;50.35;76.41;;
67900;Laerm;54700;51.796;10.956;2023-12-14T07:15:15;66.57;45.37;77.49;;
67900;Laerm;54700;51.796;10.956;2023-12-14T07:17:42;64.22;47.77;72.18;;
67900;Laerm;54700;51.796;10.956;2023-12-14T07:20:10;62.43;39.21;72.17;;
67900;Laerm;54700;51.796;10.956;2023-12-14T07:22:37;66.02;43.27;75.62;;
67900;Laerm;54700;51.796;10.956;2023-12-14T07:25:04;66.24;53.13;74.15;;
67900;Laerm;54700;51.796;10.956;2023-12-14T07:27:31;63.71;44.71;71.46;;
67900;Laerm;54700;51.796;10.956;2023-12-14T07:30:03;64.81;42.13;71.76;;
67900;Laerm;54700;51.796;10.956;2023-12-14T07:32:30;64.46;39.93;73.62;;
67900;Laerm;54700;51.796;10.956;2023-12-14T07:34:59;66.06;51.77;72.95;;
67900;Laerm;54700;51.796;10.956;2023-12-14T07:37:27;64.45;42.32;75.36;;
67900;Laerm;54700;51.796;10.956;2023-12-14T07:39:54;64.25;43.56;77.05;;
67900;Laerm;54700;51.796;10.956;2023-12-14T07:42:23;63.86;43.12;72.04;;
67900;Laerm;54700;51.796;10.956;2023-12-14T07:44:51;64.20;40.40;73.92;;
67900;Laerm;54700;51.796;10.956;2023-12-14T07:47:22;66.14;49.51;74.00;;
67900;Laerm;54700;51.796;10.956;2023-12-14T07:49:50;65.38;46.40;74.49;;
67900;Laerm;54700;51.796;10.956;2023-12-14T07:52:17;65.27;51.02;72.54;;
67900;Laerm;54700;51.796;10.956;2023-12-14T07:54:49;66.60;46.30;74.68;;
67900;Laerm;54700;51.796;10.956;2023-12-14T07:57:25;66.04;43.82;74.06;;
67900;Laerm;54700;51.796;10.956;2023-12-14T07:59:52;65.88;47.96;73.77;;
67900;Laerm;54700;51.796;10.956;2023-12-14T08:02:21;66.50;46.28;75.52;;
67900;Laerm;54700;51.796;10.956;2023-12-14T08:04:48;64.75;41.87;71.43;;
67900;Laerm;54700;51.796;10.956;2023-12-14T08:07:15;63.59;40.92;72.61;;
67900;Laerm;54700;51.796;10.956;2023-12-14T08:09:44;66.46;45.78;73.80;;
67900;Laerm;54700;51.796;10.956;2023-12-14T08:12:11;64.36;47.06;72.87;;
67900;Laerm;54700;51.796;10.956;2023-12-14T08:14:47;65.55;45.87;74.89;;
67900;Laerm;54700;51.796;10.956;2023-12-14T08:17:14;69.09;44.93;81.02;;
67900;Laerm;54700;51.796;10.956;2023-12-14T08:19:44;63.48;46.54;71.52;;
67900;Laerm;54700;51.796;10.956;2023-12-14T08:22:11;67.16;39.68;77.67;;
67900;Laerm;54700;51.796;10.956;2023-12-14T08:24:41;63.98;45.73;71.80;;
67900;Laerm;54700;51.796;10.956;2023-12-14T08:27:08;66.40;48.81;73.84;;
67900;Laerm;54700;51.796;10.956;2023-12-14T08:29:35;65.99;45.13;74.47;;
67900;Laerm;54700;51.796;10.956;2023-12-14T08:32:02;65.16;47.79;73.26;;
67900;Laerm;54700;51.796;10.956;2023-12-14T08:34:29;65.24;42.45;74.33;;
67900;Laerm;54700;51.796;10.956;2023-12-14T08:36:57;66.55;50.43;73.64;;
67900;Laerm;54700;51.796;10.956;2023-12-14T08:39:24;66.16;52.60;73.55;;
67900;Laerm;54700;51.796;10.956;2023-12-14T08:41:52;65.51;50.75;91.79;;
67900;Laerm;54700;51.796;10.956;2023-12-14T08:44:19;63.51;47.98;71.42;;
67900;Laerm;54700;51.796;10.956;2023-12-14T08:46:51;64.21;47.26;74.06;;
67900;Laerm;54700;51.796;10.956;2023-12-14T08:49:26;64.79;49.16;73.10;;
67900;Laerm;54700;51.796;10.956;2023-12-14T08:52:05;64.63;45.63;72.89;;
67900;Laerm;54700;51.796;10.956;2023-12-14T08:54:35;65.85;52.40;72.39;;
67900;Laerm;54700;51.796;10.956;2023-12-14T08:57:08;64.99;53.18;75.04;;
67900;Laerm;54700;51.796;10.956;2023-12-14T08:59:37;66.32;56.98;72.54;;
67900;Laerm;54700;51.796;10.956;2023-12-14T09:02:06;64.72;42.33;76.41;;
67900;Laerm;54700;51.796;10.956;2023-12-14T09:04:36;65.66;45.63;75.36;;
67900;Laerm;54700;51.796;10.956;2023-12-14T09:07:04;64.83;47.92;72.63;;
67900;Laerm;54700;51.796;10.956;2023-12-14T09:09:31;64.60;43.09;72.45;;
67900;Laerm;54700;51.796;10.956;2023-12-14T09:12:01;62.44;39.79;70.94;;
67900;Laerm;54700;51.796;10.956;2023-12-14T09:14:28;66.41;51.38;72.91;;
67900;Laerm;54700;51.796;10.956;2023-12-14T09:17:00;65.94;46.14;73.35;;
67900;Laerm;54700;51.796;10.956;2023-12-14T09:19:30;65.89;45.85;74.38;;
67900;Laerm;54700;51.796;10.956;2023-12-14T09:21:57;64.07;44.69;73.13;;
67900;Laerm;54700;51.796;10.956;2023-12-14T09:24:30;65.53;43.57;73.92;;
67900;Laerm;54700;51.796;10.956;2023-12-14T09:26:57;65.47;39.81;76.80;;
67900;Laerm;54700;51.796;10.956;2023-12-14T09:29:27;66.06;46.85;80.65;;
67900;Laerm;54700;51.796;10.956;2023-12-14T09:31:54;65.78;42.62;76.31;;
67900;Laerm;54700;51.796;10.956;2023-12-14T09:34:21;65.47;40.71;77.19;;
67900;Laerm;54700;51.796;10.956;2023-12-14T09:36:48;65.27;44.39;76.60;;
67900;Laerm;54700;51.796;10.956;2023-12-14T09:39:15;65.69;45.57;72.00;;
67900;Laerm;54700;51.796;10.956;2023-12-14T09:41:46;72.26;41.28;91.43;;
67900;Laerm;54700;51.796;10.956;2023-12-14T09:44:13;62.29;41.79;73.18;;
67900;Laerm;54700;51.796;10.956;2023-12-14T09:46:41;64.65;44.66;75.44;;
67900;Laerm;54700;51.796;10.956;2023-12-14T09:49:23;64.63;41.61;72.63;;
67900;Laerm;54700;51.796;10.956;2023-12-14T09:51:55;66.20;50.43;73.15;;
67900;Laerm;54700;51.796;10.956;2023-12-14T09:54:22;65.40;52.50;72.72;;
67900;Laerm;54700;51.796;10.956;2023-12-14T09:56:56;65.96;47.61;72.42;;
67900;Laerm;54700;51.796;10.956;2023-12-14T09:59:26;64.72;46.77;71.47;;
67900;Laerm;54700;51.796;10.956;2023-12-14T10:01:53;65.82;46.33;74.59;;
67900;Laerm;54700;51.796;10.956;2023-12-14T10:04:35;64.96;49.80;75.39;;
67900;Laerm;54700;51.796;10.956;2023-12-14T10:07:02;64.02;48.03;73.54;;
67900;Laerm;54700;51.796;10.956;2023-12-14T10:09:36;65.16;51.81;77.51;;
67900;Laerm;54700;51.796;10.956;2023-12-14T10:12:07;63.88;46.03;83.50;;
67900;Laerm;54700;51.796;10.956;2023-12-14T10:14:36;65.73;49.07;77.10;;
67900;Laerm;54700;51.796;10.956;2023-12-14T10:17:18;64.28;42.45;71.80;;
67900;Laerm;54700;51.796;10.956;2023-12-14T10:19:46;64.09;43.83;76.35;;
67900;Laerm;54700;51.796;10.956;2023-12-14T10:22:13;66.05;46.39;72.81;;
67900;Laerm;54700;51.796;10.956;2023-12-14T10:24:46;65.72;48.77;77.68;;
67900;Laerm;54700;51.796;10.956;2023-12-14T10:27:22;64.78;44.01;73.96;;
67900;Laerm;54700;51.796;10.956;2023-12-14T10:29:49;65.42;45.05;72.77;;
67900;Laerm;54700;51.796;10.956;2023-12-14T10:32:23;66.24;46.39;80.19;;
67900;Laerm;54700;51.796;10.956;2023-12-14T10:34:51;70.54;52.12;86.76;;
67900;Laerm;54700;51.796;10.956;2023-12-14T10:37:18;66.77;52.02;76.19;;
67900;Laerm;54700;51.796;10.956;2023-12-14T10:40:05;63.90;48.44;78.69;;
67900;Laerm;54700;51.796;10.956;2023-12-14T10:42:47;65.71;46.41;81.83;;
67900;Laerm;54700;51.796;10.956;2023-12-14T10:45:47;65.71;44.62;77.24;;
67900;Laerm;54700;51.796;10.956;2023-12-14T10:48:36;65.28;48.10;72.66;;
67900;Laerm;54700;51.796;10.956;2023-12-14T10:51:07;66.39;46.75;80.86;;
67900;Laerm;54700;51.796;10.956;2023-12-14T10:53:48;66.45;51.09;73.62;;
67900;Laerm;54700;51.796;10.956;2023-12-14T10:56:55;68.22;47.54;76.01;;
67900;Laerm;54700;51.796;10.956;2023-12-14T10:59:34;68.03;50.67;75.92;;
67900;Laerm;54700;51.796;10.956;2023-12-14T11:02:20;68.95;50.54;76.76;;
67900;Laerm;54700;51.796;10.956;2023-12-14T11:05:05;69.10;44.82;79.65;;
67900;Laerm;54700;51.796;10.956;2023-12-14T11:07:49;66.42;45.05;74.75;;
67900;Laerm;54700;51.796;10.956;2023-12-14T11:10:23;67.36;46.46;75.30;;
67900;Laerm;54700;51.796;10.956;2023-12-14T11:12:59;66.78;51.71;75.47;;
67900;Laerm;54700;51.796;10.956;2023-12-14T11:15:29;67.40;51.99;79.90;;
67900;Laerm;54700;51.796;10.956;2023-12-14T11:18:24;68.25;46.00;75.73;;
67900;Laerm;54700;51.796;10.956;2023-12-14T11:20:57;65.85;46.86;75.19;;
67900;Laerm;54700;51.796;10.956;2023-12-14T11:23:34;68.48;50.41;76.83;;
67900;Laerm;54700;51.796;10.956;2023-12-14T11:26:05;64.53;42.41;73.96;;
67900;Laerm;54700;51.796;10.956;2023-12-14T11:28:40;67.13;56.98;74.72;;
67900;Laerm;54700;51.796;10.956;2023-12-14T11:31:13;65.60;47.06;75.01;;
67900;Laerm;54700;51.796;10.956;2023-12-14T11:33:40;66.66;43.85;75.93;;
67900;Laerm;54700;51.796;10.956;2023-12-14T11:36:11;65.74;42.65;79.71;;
67900;Laerm;54700;51.796;10.956;2023-12-14T11:38:41;68.54;50.78;76.77;;
67900;Laerm;54700;51.796;10.956;2023-12-14T11:41:11;65.21;44.83;73.91;;
67900;Laerm;54700;51.796;10.956;2023-12-14T11:43:41;67.17;44.90;76.74;;
67900;Laerm;54700;51.796;10.956;2023-12-14T11:46:09;66.65;49.88;75.15;;
67900;Laerm;54700;51.796;10.956;2023-12-14T11:48:37;66.16;46.38;73.60;;
67900;Laerm;54700;51.796;10.956;2023-12-14T11:51:05;67.04;53.29;73.51;;
67900;Laerm;54700;51.796;10.956;2023-12-14T11:56:17;67.19;48.60;75.50;;
67900;Laerm;54700;51.796;10.956;2023-12-14T11:58:45;66.37;46.69;76.13;;
67900;Laerm;54700;51.796;10.956;2023-12-14T12:01:16;64.86;48.53;73.33;;
67900;Laerm;54700;51.796;10.956;2023-12-14T12:03:47;68.00;50.60;77.47;;
67900;Laerm;54700;51.796;10.956;2023-12-14T12:06:21;64.85;51.66;73.30;;
67900;Laerm;54700;51.796;10.956;2023-12-14T12:08:49;65.20;46.95;73.10;;
67900;Laerm;54700;51.796;10.956;2023-12-14T12:11:17;65.75;46.87;75.79;;
67900;Laerm;54700;51.796;10.956;2023-12-14T12:13:44;66.30;44.47;75.85;;
67900;Laerm;54700;51.796;10.956;2023-12-14T12:16:16;65.76;50.21;73.49;;
67900;Laerm;54700;51.796;10.956;2023-12-14T12:18:51;65.25;45.44;73.27;;
67900;Laerm;54700;51.796;10.956;2023-12-14T12:21:19;66.01;41.86;77.28;;
67900;Laerm;54700;51.796;10.956;2023-12-14T12:23:49;68.17;49.08;78.39;;
67900;Laerm;54700;51.796;10.956;2023-12-14T12:26:17;65.15;47.48;72.77;;
67900;Laerm;54700;51.796;10.956;2023-12-14T12:28:44;67.25;48.65;77.23;;
67900;Laerm;54700;51.796;10.956;2023-12-14T12:31:16;66.65;48.32;79.49;;
67900;Laerm;54700;51.796;10.956;2023-12-14T12:33:43;65.12;46.10;75.48;;
67900;Laerm;54700;51.796;10.956;2023-12-14T12:36:20;64.99;45.74;74.00;;
67900;Laerm;54700;51.796;10.956;2023-12-14T12:38:50;64.57;47.26;83.75;;
67900;Laerm;54700;51.796;10.956;2023-12-14T12:41:18;64.56;47.07;76.76;;
67900;Laerm;54700;51.796;10.956;2023-12-14T12:43:45;66.12;51.02;73.87;;
67900;Laerm;54700;51.796;10.956;2023-12-14T12:46:12;66.11;56.55;73.45;;
67900;Laerm;54700;51.796;10.956;2023-12-14T12:48:39;66.34;45.43;78.18;;
67900;Laerm;54700;51.796;10.956;2023-12-14T12:51:06;66.70;47.65;74.82;;
67900;Laerm;54700;51.796;10.956;2023-12-14T12:53:37;65.69;54.99;73.20;;
67900;Laerm;54700;51.796;10.956;2023-12-14T12:56:05;67.82;55.03;77.06;;
67900;Laerm;54700;51.796;10.956;2023-12-14T12:58:32;66.92;51.33;75.34;;
67900;Laerm;54700;51.796;10.956;2023-12-14T13:00:59;65.92;44.38;75.48;;
67900;Laerm;54700;51.796;10.956;2023-12-14T13:03:26;67.07;45.53;76.82;;
67900;Laerm;54700;51.796;10.956;2023-12-14T13:06:00;65.64;46.90;72.87;;
67900;Laerm;54700;51.796;10.956;2023-12-14T13:08:28;66.46;48.28;82.11;;
67900;Laerm;54700;51.796;10.956;2023-12-14T13:10:57;66.33;55.15;77.53;;
67900;Laerm;54700;51.796;10.956;2023-12-14T13:13:25;66.12;42.78;84.90;;
67900;Laerm;54700;51.796;10.956;2023-12-14T13:15:59;65.04;43.37;74.99;;
67900;Laerm;54700;51.796;10.956;2023-12-14T13:18:26;67.49;43.62;76.85;;
67900;Laerm;54700;51.796;10.956;2023-12-14T13:20:53;65.25;42.63;75.75;;
67900;Laerm;54700;51.796;10.956;2023-12-14T13:23:20;65.67;45.37;74.07;;
67900;Laerm;54700;51.796;10.956;2023-12-14T13:25:47;65.46;45.16;72.82;;
67900;Laerm;54700;51.796;10.956;2023-12-14T13:28:16;66.00;44.68;75.53;;
67900;Laerm;54700;51.796;10.956;2023-12-14T13:30:43;65.89;46.07;75.82;;
67900;Laerm;54700;51.796;10.956;2023-12-14T13:33:10;65.09;50.09;72.09;;
67900;Laerm;54700;51.796;10.956;2023-12-14T13:35:40;66.52;43.78;81.73;;
67900;Laerm;54700;51.796;10.956;2023-12-14T13:38:08;65.87;52.77;73.03;;
67900;Laerm;54700;51.796;10.956;2023-12-14T13:40:35;64.87;44.96;73.32;;
67900;Laerm;54700;51.796;10.956;2023-12-14T13:43:02;65.63;48.44;72.89;;
67900;Laerm;54700;51.796;10.956;2023-12-14T13:45:37;66.07;51.35;71.97;;